Time;durP1;ratioP1;P1;durP2;ratioP2;P2;SDS_P1;SDS_P2;PMS_P1;PMS_P2;Temp;Humidity;BMP_temperature;BMP_pressure;BME280_temperature;BME280_humidity;BME280_pressure;Samples;Min_cycle;Max_cycle;Signal;HPM_P1;HPM_P2
2022/07/11 00:00:08;;;;;;;2.28;0.60;;;14.70;62.70;;;;;;5054713;28;20040;-64
2022/07/11 00:02:34;;;;;;;1.88;0.60;;;14.60;62.70;;;;;;5055774;28;20099;-63
2022/07/11 00:05:01;;;;;;;1.20;0.70;;;14.60;62.90;;;;;;5056062;28;20447;-64
2022/07/11 00:07:27;;;;;;;0.60;0.50;;;14.60;63.00;;;;;;5055475;28;20052;-62
2022/07/11 00:09:53;;;;;;;4.25;0.88;;;14.60;63.10;;;;;;5056738;28;20040;-61
2022/07/11 00:12:20;;;;;;;0.40;0.40;;;14.60;62.90;;;;;;5055171;28;20041;-61
2022/07/11 00:14:46;;;;;;;0.70;0.70;;;14.50;62.90;;;;;;5052343;28;20131;-61
2022/07/11 00:17:11;;;;;;;1.15;0.40;;;14.50;63.10;;;;;;5056398;28;20104;-59
2022/07/11 00:19:37;;;;;;;0.90;0.40;;;14.50;63.10;;;;;;5057224;28;20051;-60
2022/07/11 00:22:03;;;;;;;1.00;0.80;;;14.50;63.30;;;;;;5055114;28;20033;-62
2022/07/11 00:24:29;;;;;;;0.98;0.43;;;14.50;63.40;;;;;;5054585;28;20037;-62
2022/07/11 00:26:55;;;;;;;1.58;0.57;;;14.50;63.30;;;;;;5051246;28;20040;-62
2022/07/11 00:29:20;;;;;;;0.90;0.60;;;14.50;63.30;;;;;;5055338;28;20029;-63
2022/07/11 00:31:46;;;;;;;1.58;0.80;;;14.50;63.40;;;;;;5051125;28;20618;-60
2022/07/11 00:34:12;;;;;;;1.10;0.65;;;14.40;63.50;;;;;;5055338;28;20039;-62
2022/07/11 00:36:37;;;;;;;1.35;0.60;;;14.40;63.50;;;;;;5053845;28;20500;-59
2022/07/11 00:39:04;;;;;;;1.83;0.52;;;14.40;63.70;;;;;;5053774;28;20025;-64
2022/07/11 00:41:30;;;;;;;2.05;0.65;;;14.40;63.80;;;;;;5053960;28;20036;-62
2022/07/11 00:43:57;;;;;;;0.68;0.40;;;14.40;63.80;;;;;;5054176;28;20056;-62
2022/07/11 00:46:24;;;;;;;1.42;0.50;;;14.40;63.80;;;;;;5054113;28;20601;-62
2022/07/11 00:48:51;;;;;;;0.98;0.50;;;14.50;63.80;;;;;;5053212;28;20037;-63
2022/07/11 00:51:21;;;;;;;0.75;0.65;;;14.50;64.50;;;;;;5055726;28;20029;-60
2022/07/11 00:53:54;;;;;;;1.70;0.70;;;14.50;63.60;;;;;;5052202;28;20041;-61
2022/07/11 00:56:22;;;;;;;2.55;0.60;;;14.50;63.60;;;;;;5052823;28;20123;-62
2022/07/11 00:58:51;;;;;;;1.30;0.60;;;14.40;63.50;;;;;;5052973;28;20043;-61
2022/07/11 01:01:18;;;;;;;3.53;0.60;;;14.30;63.90;;;;;;5054225;28;20029;-63
2022/07/11 01:03:43;;;;;;;2.28;0.57;;;14.20;63.80;;;;;;5051916;28;20045;-61
2022/07/11 01:06:10;;;;;;;1.20;0.52;;;14.10;63.90;;;;;;5055776;28;20531;-60
2022/07/11 01:08:38;;;;;;;1.60;0.70;;;14.10;64.20;;;;;;5053994;28;20059;-59
2022/07/11 01:11:05;;;;;;;1.08;0.60;;;14.00;64.40;;;;;;5050625;28;20025;-61
2022/07/11 01:13:31;;;;;;;1.00;0.63;;;13.90;64.50;;;;;;5054336;28;20688;-62
2022/07/11 01:16:29;;;;;;;0.88;0.60;;;13.80;64.70;;;;;;5053332;28;20497;-63
2022/07/11 01:18:55;;;;;;;1.40;0.70;;;13.80;65.70;;;;;;5054143;28;20048;-63
2022/07/11 01:21:30;;;;;;;2.30;0.68;;;13.70;64.90;;;;;;5054244;28;20033;-63
2022/07/11 01:23:57;;;;;;;;;;;13.70;65.90;;;;;;5053334;28;20037;-63
2022/07/11 01:26:24;;;;;;;1.23;0.70;;;13.70;65.60;;;;;;5050912;28;20425;-62
2022/07/11 01:28:50;;;;;;;0.70;0.50;;;13.60;65.70;;;;;;5051211;28;20044;-61
2022/07/11 01:31:16;;;;;;;1.20;0.65;;;13.60;65.30;;;;;;5054062;28;20555;-60
2022/07/11 01:33:42;;;;;;;0.80;0.80;;;13.60;65.40;;;;;;5052079;28;20520;-61
2022/07/11 01:36:08;;;;;;;0.65;0.60;;;13.60;65.40;;;;;;5052103;28;20067;-61
2022/07/11 01:38:34;;;;;;;0.80;0.50;;;13.60;65.60;;;;;;5050925;28;20036;-61
2022/07/11 01:41:00;;;;;;;2.85;0.90;;;13.60;65.70;;;;;;5054746;28;20071;-63
2022/07/11 01:43:25;;;;;;;0.98;0.70;;;13.50;65.80;;;;;;5051577;28;20041;-61
2022/07/11 01:45:55;;;;;;;1.77;0.80;;;13.60;65.90;;;;;;5053059;28;20083;-61
2022/07/11 01:48:21;;;;;;;1.63;0.60;;;13.50;67.10;;;;;;5054022;28;20291;-61
2022/07/11 01:50:47;;;;;;;4.50;0.70;;;13.50;66.00;;;;;;5049632;28;20111;-62
2022/07/11 01:53:14;;;;;;;1.38;0.60;;;13.50;66.20;;;;;;5052501;28;20029;-61
2022/07/11 01:55:40;;;;;;;2.33;0.80;;;13.40;66.40;;;;;;5053726;28;20044;-61
2022/07/11 01:58:06;;;;;;;1.23;0.80;;;13.40;66.40;;;;;;5050845;28;20036;-60
2022/07/11 02:00:31;;;;;;;0.95;0.70;;;13.50;66.50;;;;;;5051414;28;20040;-60
2022/07/11 02:02:57;;;;;;;0.85;0.60;;;13.40;66.40;;;;;;5051965;28;20098;-60
2022/07/11 02:05:23;;;;;;;1.35;0.70;;;13.40;66.60;;;;;;5038117;28;20029;-61
2022/07/11 02:10:33;;;;;;;1.23;0.80;;;13.40;66.50;;;;;;5051221;28;20044;-63
2022/07/11 02:12:59;;;;;;;1.20;0.60;;;13.30;66.30;;;;;;5054202;28;20033;-61
2022/07/11 02:15:26;;;;;;;1.35;0.70;;;13.30;67.50;;;;;;5052431;28;20690;-60
2022/07/11 02:17:52;;;;;;;1.30;0.70;;;13.20;66.80;;;;;;5057101;28;20050;-62
2022/07/11 02:20:24;;;;;;;0.70;0.70;;;13.20;66.90;;;;;;5055608;28;20056;-62
2022/07/11 02:22:51;;;;;;;1.05;0.73;;;13.20;67.30;;;;;;5056030;28;20052;-61
2022/07/11 02:25:17;;;;;;;1.00;0.70;;;13.20;66.90;;;;;;5055959;28;20654;-60
2022/07/11 02:27:43;;;;;;;1.00;0.70;;;13.20;66.90;;;;;;5055228;28;20037;-61
2022/07/11 02:30:09;;;;;;;0.70;0.70;;;13.10;66.90;;;;;;5057771;28;20127;-62
2022/07/11 02:32:36;;;;;;;1.35;0.70;;;13.10;67.10;;;;;;5054654;28;20029;-61
2022/07/11 02:35:01;;;;;;;1.40;0.60;;;13.10;67.30;;;;;;5055130;28;20544;-63
2022/07/11 02:37:27;;;;;;;0.95;0.60;;;13.10;67.30;;;;;;5054716;28;20036;-62
2022/07/11 02:39:52;;;;;;;1.55;0.70;;;13.10;67.20;;;;;;5056633;28;20033;-61
2022/07/11 02:42:18;;;;;;;0.80;0.70;;;13.20;67.30;;;;;;5041291;28;20067;-60
2022/07/11 02:44:45;;;;;;;2.55;0.75;;;13.20;67.30;;;;;;5055908;28;20133;-63
2022/07/11 02:47:11;;;;;;;1.55;0.80;;;13.20;67.10;;;;;;5052624;28;20022;-62
2022/07/11 02:49:37;;;;;;;10.43;0.70;;;13.20;66.90;;;;;;5057389;28;20059;-60
2022/07/11 02:52:04;;;;;;;2.17;0.80;;;13.20;67.10;;;;;;5055525;28;20036;-59
2022/07/11 02:54:29;;;;;;;1.13;0.80;;;13.10;67.00;;;;;;5056153;28;20041;-62
2022/07/11 02:56:55;;;;;;;0.82;0.82;;;13.10;67.10;;;;;;5054619;28;20107;-62
2022/07/11 02:59:21;;;;;;;0.60;0.55;;;13.10;67.20;;;;;;5058434;28;20401;-63
2022/07/11 03:01:47;;;;;;;2.88;0.90;;;13.10;67.20;;;;;;5053181;28;20039;-62
2022/07/11 03:04:13;;;;;;;1.50;1.10;;;13.10;67.20;;;;;;5056833;28;20040;-62
2022/07/11 03:06:40;;;;;;;1.95;0.80;;;13.00;67.60;;;;;;5054805;28;20518;-61
2022/07/11 03:09:06;;;;;;;1.13;0.68;;;13.00;67.30;;;;;;5056539;28;20040;-64
2022/07/11 03:11:32;;;;;;;2.13;0.90;;;12.90;67.40;;;;;;5040097;28;20626;-62
2022/07/11 03:13:58;;;;;;;1.25;0.80;;;12.90;67.60;;;;;;5057376;28;20044;-62
2022/07/11 03:16:24;;;;;;;1.35;0.80;;;12.90;67.60;;;;;;5057673;28;20060;-62
2022/07/11 03:18:50;;;;;;;2.05;0.75;;;12.80;67.70;;;;;;5058030;28;20037;-63
2022/07/11 03:21:15;;;;;;;2.13;0.88;;;12.80;67.90;;;;;;5060095;28;20567;-62
2022/07/11 03:23:41;;;;;;;1.52;0.70;;;12.90;67.90;;;;;;5056632;28;20045;-62
2022/07/11 03:26:07;;;;;;;1.52;1.00;;;12.80;67.70;;;;;;5059466;28;20036;-64
2022/07/11 03:28:32;;;;;;;2.15;1.00;;;12.90;67.60;;;;;;5058338;28;20048;-62
2022/07/11 03:30:58;;;;;;;3.05;1.17;;;12.90;67.60;;;;;;5058705;28;20124;-64
2022/07/11 03:33:24;;;;;;;1.80;0.80;;;12.80;67.60;;;;;;5058718;28;20463;-59
2022/07/11 03:35:49;;;;;;;1.15;0.80;;;12.70;67.80;;;;;;5058150;28;20071;-61
2022/07/11 03:38:18;;;;;;;1.48;0.80;;;12.70;67.90;;;;;;5058897;28;20279;-63
2022/07/11 03:40:45;;;;;;;1.20;0.80;;;12.70;68.10;;;;;;5036087;28;20040;-62
2022/07/11 03:43:11;;;;;;;0.77;0.77;;;12.60;68.00;;;;;;5058909;28;20132;-61
2022/07/11 03:45:37;;;;;;;1.50;0.98;;;12.60;68.30;;;;;;5058787;28;20127;-62
2022/07/11 03:48:03;;;;;;;0.70;0.70;;;12.60;68.80;;;;;;5056600;28;20503;-63
2022/07/11 03:50:29;;;;;;;1.50;0.90;;;12.60;68.50;;;;;;5055648;28;20571;-61
2022/07/11 03:52:55;;;;;;;0.80;0.80;;;12.70;68.50;;;;;;5056498;28;20029;-62
2022/07/11 03:55:21;;;;;;;0.95;0.80;;;12.70;68.50;;;;;;5056765;28;20045;-60
2022/07/11 03:57:47;;;;;;;0.95;0.88;;;12.70;68.60;;;;;;5058095;28;20039;-61
2022/07/11 04:00:14;;;;;;;2.88;1.10;;;12.80;68.70;;;;;;5057187;28;20072;-61
2022/07/11 04:02:40;;;;;;;1.38;0.80;;;12.80;68.50;;;;;;5057971;28;20025;-59
2022/07/11 04:05:06;;;;;;;0.90;0.90;;;12.90;68.50;;;;;;5058416;28;20089;-63
2022/07/11 04:07:32;;;;;;;2.65;1.00;;;12.90;68.40;;;;;;5059164;28;20527;-60
2022/07/11 04:09:58;;;;;;;2.58;0.93;;;12.90;68.40;;;;;;5057539;28;20047;-61
2022/07/11 04:12:24;;;;;;;1.70;1.00;;;13.00;68.50;;;;;;5058976;28;20037;-59
2022/07/11 04:14:49;;;;;;;2.38;1.00;;;13.00;68.60;;;;;;5058350;28;20040;-61
2022/07/11 04:17:16;;;;;;;2.88;1.10;;;13.00;68.40;;;;;;5057614;28;20711;-62
2022/07/11 04:19:45;;;;;;;3.35;1.10;;;13.00;68.30;;;;;;5057969;28;20029;-62
2022/07/11 04:22:11;;;;;;;1.27;0.70;;;13.00;68.30;;;;;;5055333;28;20040;-63
2022/07/11 04:24:37;;;;;;;1.05;0.90;;;13.00;68.30;;;;;;5058065;28;20032;-61
2022/07/11 04:27:02;;;;;;;1.55;1.20;;;13.00;68.30;;;;;;5057141;28;20450;-60
2022/07/11 04:29:28;;;;;;;1.10;0.90;;;12.90;68.30;;;;;;5052131;28;20500;-62
2022/07/11 04:31:54;;;;;;;2.35;1.08;;;12.90;68.60;;;;;;5048773;28;20025;-64
2022/07/11 04:34:19;;;;;;;1.48;1.08;;;12.80;68.80;;;;;;5045598;28;20044;-63
2022/07/11 04:36:45;;;;;;;1.10;0.80;;;12.80;69.00;;;;;;5050039;28;20040;-61
2022/07/11 04:39:11;;;;;;;1.48;1.00;;;12.80;69.30;;;;;;5049917;28;20036;-61
2022/07/11 04:41:37;;;;;;;3.92;1.10;;;12.70;69.50;;;;;;5052088;28;20484;-64
2022/07/11 04:44:02;;;;;;;1.45;0.93;;;12.80;69.80;;;;;;5055321;28;20047;-62
2022/07/11 04:46:29;;;;;;;1.30;1.10;;;12.70;69.80;;;;;;5053080;28;20037;-62
2022/07/11 04:48:55;;;;;;;3.25;1.10;;;12.70;69.70;;;;;;5054026;28;20180;-61
2022/07/11 04:51:20;;;;;;;1.73;0.93;;;12.80;69.80;;;;;;5052508;28;20359;-60
2022/07/11 04:53:46;;;;;;;3.75;1.13;;;12.70;70.00;;;;;;5053929;28;20055;-62
2022/07/11 04:56:12;;;;;;;1.50;1.27;;;12.80;70.20;;;;;;5053502;28;20045;-61
2022/07/11 04:58:38;;;;;;;2.05;1.23;;;12.80;70.50;;;;;;5053065;28;20134;-61
2022/07/11 05:01:03;;;;;;;2.80;1.10;;;12.90;70.60;;;;;;5053752;28;20045;-63
2022/07/11 05:03:29;;;;;;;1.80;1.27;;;12.90;70.60;;;;;;5055809;28;20040;-62
2022/07/11 05:05:55;;;;;;;3.90;1.38;;;13.00;70.70;;;;;;5052322;28;20037;-60
2022/07/11 05:08:21;;;;;;;1.42;1.15;;;13.00;70.80;;;;;;5034637;28;20093;-61
2022/07/11 05:10:47;;;;;;;2.40;1.40;;;13.10;70.90;;;;;;5053698;28;20334;-62
2022/07/11 05:13:13;;;;;;;2.78;1.40;;;13.20;70.90;;;;;;5054083;28;20043;-60
2022/07/11 05:15:39;;;;;;;2.22;1.20;;;13.20;70.90;;;;;;5053953;28;20037;-60
2022/07/11 05:18:05;;;;;;;1.73;1.30;;;13.30;71.00;;;;;;5053691;28;20412;-59
2022/07/11 05:20:31;;;;;;;1.92;1.50;;;13.40;71.10;;;;;;5055446;28;20499;-62
2022/07/11 05:22:57;;;;;;;4.05;1.50;;;13.40;71.10;;;;;;5053773;28;20037;-60
2022/07/11 05:25:23;;;;;;;3.13;1.30;;;13.50;71.10;;;;;;5055357;28;20040;-60
2022/07/11 05:27:49;;;;;;;4.07;1.40;;;13.60;71.10;;;;;;5056470;28;20549;-61
2022/07/11 05:30:14;;;;;;;1.92;1.10;;;13.70;71.00;;;;;;5052764;28;20059;-62
2022/07/11 05:32:40;;;;;;;2.55;1.70;;;13.80;71.30;;;;;;5053370;28;20029;-60
2022/07/11 05:35:06;;;;;;;5.15;1.63;;;13.90;71.00;;;;;;5054110;28;20045;-61
2022/07/11 05:37:32;;;;;;;2.90;1.38;;;14.00;70.40;;;;;;5052965;28;20036;-61
2022/07/11 05:39:58;;;;;;;7.78;1.67;;;14.10;70.40;;;;;;5053257;28;20032;-63
2022/07/11 05:42:23;;;;;;;6.38;1.80;;;14.20;70.20;;;;;;5054779;28;20033;-62
2022/07/11 05:44:49;;;;;;;4.78;1.17;;;14.30;70.30;;;;;;5053535;28;20499;-63
2022/07/11 05:47:15;;;;;;;1.33;1.20;;;14.40;70.00;;;;;;5052933;28;20033;-63
2022/07/11 05:49:41;;;;;;;2.20;1.30;;;14.50;70.00;;;;;;5051132;28;20546;-61
2022/07/11 05:52:07;;;;;;;3.08;1.40;;;14.60;69.90;;;;;;5049640;28;20029;-62
2022/07/11 05:54:33;;;;;;;2.22;1.52;;;14.70;69.70;;;;;;5051367;28;20044;-62
2022/07/11 05:56:58;;;;;;;3.25;1.35;;;14.80;69.50;;;;;;5051646;28;20072;-61
2022/07/11 05:59:24;;;;;;;5.13;1.40;;;14.90;69.40;;;;;;5049428;28;20037;-62
2022/07/11 06:01:49;;;;;;;3.53;1.40;;;15.00;69.30;;;;;;5050284;28;20049;-62
2022/07/11 06:04:15;;;;;;;2.03;1.45;;;15.10;69.10;;;;;;5052058;28;20037;-61
2022/07/11 06:06:41;;;;;;;1.75;1.33;;;15.20;68.80;;;;;;5051062;28;20593;-64
2022/07/11 06:09:06;;;;;;;2.35;1.20;;;15.30;68.60;;;;;;5051994;28;20028;-61
2022/07/11 06:11:33;;;;;;;4.45;1.25;;;15.40;68.40;;;;;;5051144;28;20649;-64
2022/07/11 06:13:58;;;;;;;2.92;1.50;;;15.50;68.40;;;;;;5047933;28;20057;-64
2022/07/11 06:16:24;;;;;;;1.63;1.20;;;15.70;68.30;;;;;;5053409;28;20044;-64
2022/07/11 06:18:50;;;;;;;2.47;1.10;;;15.80;68.10;;;;;;5054418;28;20508;-63
2022/07/11 06:21:17;;;;;;;1.58;1.17;;;15.90;67.80;;;;;;5054095;28;20500;-62
2022/07/11 06:23:42;;;;;;;3.10;1.50;;;16.00;67.70;;;;;;5051732;28;20072;-61
2022/07/11 06:26:11;;;;;;;2.65;1.40;;;16.10;67.60;;;;;;5052505;28;20445;-62
2022/07/11 06:28:37;;;;;;;4.50;1.50;;;16.20;67.30;;;;;;5053690;28;20735;-62
2022/07/11 06:31:03;;;;;;;4.40;1.70;;;16.30;67.30;;;;;;5053541;28;20076;-60
2022/07/11 06:33:29;;;;;;;2.03;1.60;;;16.40;67.10;;;;;;5052106;28;20036;-64
2022/07/11 06:35:54;;;;;;;3.05;1.67;;;16.50;66.90;;;;;;5053097;28;20039;-61
2022/07/11 06:38:20;;;;;;;2.50;1.77;;;16.60;66.60;;;;;;5053682;28;20038;-63
2022/07/11 06:40:46;;;;;;;4.15;1.65;;;16.70;66.60;;;;;;5053677;28;20043;-63
2022/07/11 06:43:12;;;;;;;4.60;1.58;;;16.80;66.40;;;;;;5055189;28;20052;-61
2022/07/11 06:45:38;;;;;;;5.05;1.58;;;16.90;66.00;;;;;;5054486;28;20072;-62
2022/07/11 06:48:05;;;;;;;2.25;1.20;;;17.00;65.90;;;;;;5055033;28;20110;-62
2022/07/11 06:50:31;;;;;;;3.15;1.27;;;17.00;66.00;;;;;;5053391;28;20932;-63
2022/07/11 06:52:57;;;;;;;8.70;1.30;;;17.20;65.90;;;;;;5052496;28;20447;-64
2022/07/11 06:55:23;;;;;;;2.55;1.10;;;17.20;65.70;;;;;;5054847;28;20048;-64
2022/07/11 06:57:50;;;;;;;3.25;1.10;;;17.30;65.60;;;;;;5053670;28;20113;-62
2022/07/11 07:00:17;;;;;;;2.90;1.30;;;17.40;65.50;;;;;;5053406;28;20133;-61
2022/07/11 07:02:43;;;;;;;3.72;1.20;;;17.50;65.30;;;;;;5054585;28;20051;-62
2022/07/11 07:05:09;;;;;;;2.20;1.20;;;17.60;65.10;;;;;;5054566;28;20040;-62
2022/07/11 07:07:35;;;;;;;3.67;1.08;;;17.70;65.30;;;;;;5056213;28;20356;-61
2022/07/11 07:10:01;;;;;;;3.20;0.88;;;17.80;64.90;;;;;;5053439;28;20488;-62
2022/07/11 07:12:27;;;;;;;3.78;1.05;;;17.90;64.80;;;;;;5054065;28;20997;-62
2022/07/11 07:14:53;;;;;;;3.17;0.95;;;17.90;64.30;;;;;;5058059;28;20586;-63
2022/07/11 07:17:18;;;;;;;1.95;0.85;;;18.00;63.70;;;;;;5056165;28;20432;-63
2022/07/11 07:19:44;;;;;;;2.65;0.80;;;18.10;63.20;;;;;;5060848;28;20082;-60
2022/07/11 07:22:10;;;;;;;1.60;0.63;;;18.20;63.10;;;;;;5056111;28;20068;-62
2022/07/11 07:24:36;;;;;;;2.10;0.60;;;18.30;63.20;;;;;;5056710;28;20121;-63
2022/07/11 07:27:05;;;;;;;1.13;0.75;;;18.40;63.00;;;;;;5042349;28;20040;-63
2022/07/11 07:29:32;;;;;;;1.83;0.73;;;18.50;63.00;;;;;;5057963;28;20036;-63
2022/07/11 07:31:59;;;;;;;2.20;0.60;;;18.50;62.90;;;;;;5057226;28;20408;-61
2022/07/11 07:34:24;;;;;;;5.93;1.10;;;18.60;62.60;;;;;;5057912;28;20033;-63
2022/07/11 07:36:50;;;;;;;1.27;0.80;;;18.80;62.40;;;;;;5058219;28;20558;-63
2022/07/11 07:39:16;;;;;;;4.30;0.77;;;18.90;61.80;;;;;;5058563;28;20877;-60
2022/07/11 07:41:42;;;;;;;3.63;0.75;;;19.00;61.70;;;;;;5055146;28;20041;-62
2022/07/11 07:44:08;;;;;;;2.97;1.17;;;19.10;61.50;;;;;;5057984;28;20123;-62
2022/07/11 07:46:33;;;;;;;3.10;0.82;;;19.20;61.30;;;;;;5056077;28;20032;-61
2022/07/11 07:48:59;;;;;;;0.40;0.40;;;19.30;61.00;;;;;;5057904;28;20032;-62
2022/07/11 07:51:25;;;;;;;2.75;0.70;;;19.30;60.30;;;;;;5054414;28;20094;-63
2022/07/11 07:53:51;;;;;;;5.50;0.63;;;19.40;59.40;;;;;;5057361;28;20365;-63
2022/07/11 07:56:17;;;;;;;2.95;0.50;;;19.50;59.40;;;;;;5055161;28;20551;-63
2022/07/11 07:58:42;;;;;;;1.70;0.35;;;19.60;59.30;;;;;;5056657;28;20071;-64
2022/07/11 08:03:54;;;;;;;0.35;0.22;;;19.80;58.90;;;;;;5054214;28;20047;-62
2022/07/11 08:06:20;;;;;;;1.05;0.40;;;19.90;58.60;;;;;;5054838;28;20423;-60
2022/07/11 08:08:46;;;;;;;0.98;0.52;;;20.00;58.30;;;;;;5056970;28;20097;-63
2022/07/11 08:11:12;;;;;;;0.63;0.35;;;20.10;57.90;;;;;;5057287;28;20041;-63
2022/07/11 08:13:38;;;;;;;0.70;0.38;;;20.10;57.50;;;;;;5056317;28;20036;-61
2022/07/11 08:16:07;;;;;;;1.85;0.30;;;20.20;57.50;;;;;;5057320;28;20047;-63
2022/07/11 08:18:33;;;;;;;0.60;0.20;;;20.30;57.10;;;;;;5055982;28;20033;-63
2022/07/11 08:20:59;;;;;;;2.67;0.90;;;20.40;56.80;;;;;;5057032;28;20070;-66
2022/07/11 08:23:25;;;;;;;0.57;0.20;;;20.50;56.50;;;;;;5054284;28;20131;-62
2022/07/11 08:25:52;;;;;;;0.85;0.25;;;20.60;56.20;;;;;;5056043;28;20127;-63
2022/07/11 08:28:18;;;;;;;2.85;0.20;;;20.70;56.10;;;;;;5055532;28;20044;-63
2022/07/11 08:30:45;;;;;;;0.20;0.20;;;20.70;55.80;;;;;;5056644;28;20051;-62
2022/07/11 08:33:11;;;;;;;0.73;0.20;;;20.80;55.40;;;;;;5056770;28;20067;-63
2022/07/11 08:35:37;;;;;;;1.08;0.20;;;20.80;55.20;;;;;;5056318;28;20055;-62
2022/07/11 08:38:02;;;;;;;0.52;0.30;;;20.90;55.20;;;;;;5055954;28;20033;-62
2022/07/11 08:40:28;;;;;;;3.92;0.20;;;21.00;55.00;;;;;;5036952;28;20082;-64
2022/07/11 08:42:56;;;;;;;0.43;0.10;;;21.10;54.80;;;;;;5056732;28;20498;-61
2022/07/11 08:45:27;;;;;;;3.92;0.30;;;21.10;54.60;;;;;;5055883;28;21547;-61
2022/07/11 08:47:54;;;;;;;0.50;0.20;;;21.20;54.50;;;;;;5055541;28;20043;-64
2022/07/11 08:50:22;;;;;;;0.88;0.20;;;21.30;54.00;;;;;;5053881;28;20039;-63
2022/07/11 08:52:48;;;;;;;1.55;0.30;;;21.30;54.00;;;;;;5052623;28;20059;-62
2022/07/11 08:55:13;;;;;;;0.32;0.20;;;21.50;53.90;;;;;;5058682;28;20036;-63
2022/07/11 08:57:39;;;;;;;2.53;0.80;;;21.60;53.70;;;;;;5054261;28;20052;-62
2022/07/11 09:00:08;;;;;;;0.20;0.10;;;21.60;53.70;;;;;;5056450;28;20036;-63
2022/07/11 09:02:35;;;;;;;1.85;0.20;;;21.70;53.00;;;;;;5055330;28;20087;-63
2022/07/11 09:05:07;;;;;;;0.35;0.20;;;21.80;52.70;;;;;;5054950;28;20029;-63
2022/07/11 09:07:34;;;;;;;0.45;0.20;;;21.90;53.00;;;;;;5054617;28;20396;-62
2022/07/11 09:10:00;;;;;;;0.22;0.20;;;21.90;53.00;;;;;;5057876;28;20251;-61
2022/07/11 09:12:25;;;;;;;2.92;0.28;;;22.10;53.10;;;;;;5053370;28;20032;-63
2022/07/11 09:14:51;;;;;;;1.85;0.10;;;22.20;53.00;;;;;;5057366;28;20039;-61
2022/07/11 09:17:26;;;;;;;0.73;0.20;;;22.30;52.30;;;;;;5057112;28;20507;-62
2022/07/11 09:19:52;;;;;;;0.60;0.22;;;22.40;52.00;;;;;;5055923;28;20420;-63
2022/07/11 09:25:24;;;;;;;0.35;0.20;;;22.60;52.80;;;;;;5055725;28;20086;-63
2022/07/11 09:28:01;;;;;;;0.50;0.32;;;22.80;51.70;;;;;;5056271;28;20277;-60
2022/07/11 09:30:29;;;;;;;0.88;0.25;;;22.90;51.10;;;;;;5055500;28;20033;-62
2022/07/11 09:32:57;;;;;;;0.20;0.20;;;23.10;52.20;;;;;;5056211;28;20040;-64
2022/07/11 09:35:25;;;;;;;0.20;0.20;;;23.20;51.20;;;;;;5053914;28;20400;-63
2022/07/11 09:37:51;;;;;;;0.60;0.20;;;23.30;50.60;;;;;;5056578;28;20029;-63
2022/07/11 09:40:17;;;;;;;0.32;0.30;;;23.40;50.90;;;;;;5057804;28;20032;-61
2022/07/11 09:42:55;;;;;;;0.43;0.20;;;23.50;50.80;;;;;;5057913;28;20581;-63
2022/07/11 09:45:27;;;;;;;1.00;0.20;;;23.60;50.20;;;;;;5055925;28;20078;-59
2022/07/11 09:47:55;;;;;;;0.57;0.30;;;23.70;49.80;;;;;;5056080;28;20024;-62
2022/07/11 09:50:27;;;;;;;0.30;0.30;;;23.80;49.70;;;;;;5055003;28;20115;-63
2022/07/11 09:53:00;;;;;;;1.08;0.20;;;23.90;49.80;;;;;;5053029;28;20078;-63
2022/07/11 09:55:26;;;;;;;0.60;0.30;;;24.00;49.20;;;;;;5053584;28;20488;-62
2022/07/11 09:57:52;;;;;;;0.30;0.20;;;24.10;49.20;;;;;;5055635;28;20041;-63
2022/07/11 10:00:18;;;;;;;1.00;0.30;;;24.10;49.00;;;;;;5055515;28;20024;-62
2022/07/11 10:02:45;;;;;;;1.60;0.20;;;24.20;48.00;;;;;;5053585;28;20160;-63
2022/07/11 10:05:11;;;;;;;0.45;0.20;;;24.20;48.50;;;;;;5052605;28;20042;-62
2022/07/11 10:07:36;;;;;;;1.65;0.40;;;24.30;48.80;;;;;;5052567;28;20067;-62
2022/07/11 10:10:05;;;;;;;0.88;0.20;;;24.40;48.90;;;;;;5052615;28;20128;-63
2022/07/11 10:12:32;;;;;;;0.22;0.20;;;24.50;48.90;;;;;;5036194;28;20475;-62
2022/07/11 10:15:01;;;;;;;0.20;0.20;;;24.60;48.80;;;;;;5053921;28;20523;-64
2022/07/11 10:17:39;;;;;;;0.95;0.25;;;24.60;48.40;;;;;;5056448;28;20465;-64
2022/07/11 10:20:32;;;;;;;2.25;0.28;;;24.70;47.70;;;;;;5056153;28;20033;-62
2022/07/11 10:23:19;;;;;;;0.40;0.20;;;24.70;46.80;;;;;;5055593;28;20420;-60
2022/07/11 10:26:07;;;;;;;0.40;0.20;;;24.70;47.60;;;;;;5055828;28;20379;-63
2022/07/11 10:28:46;;;;;;;0.25;0.25;;;24.60;47.70;;;;;;5054957;28;20066;-63
2022/07/11 10:31:23;;;;;;;0.28;0.28;;;24.60;47.60;;;;;;5056109;28;20534;-63
2022/07/11 10:34:18;;;;;;;0.20;0.20;;;24.60;47.10;;;;;;5038718;28;20098;-63
2022/07/11 10:36:45;;;;;;;0.38;0.30;;;24.50;45.70;;;;;;5058384;28;20041;-61
2022/07/11 10:39:27;;;;;;;0.55;0.20;;;24.40;47.20;;;;;;5056090;28;20037;-62
2022/07/11 10:41:54;;;;;;;3.03;0.25;;;24.30;47.30;;;;;;5057250;28;20037;-63
2022/07/11 10:44:21;;;;;;;0.88;0.20;;;24.20;47.70;;;;;;5056222;28;20064;-62
2022/07/11 10:46:46;;;;;;;0.20;0.20;;;24.10;47.80;;;;;;5057695;28;20037;-62
2022/07/11 10:49:15;;;;;;;0.75;0.10;;;24.10;48.10;;;;;;5057000;28;20044;-62
2022/07/11 10:51:55;;;;;;;0.40;0.20;;;24.10;48.10;;;;;;5052239;28;20041;-62
2022/07/11 10:54:41;;;;;;;1.38;0.20;;;24.20;47.40;;;;;;5055461;28;20071;-65
2022/07/11 10:57:36;;;;;;;1.05;0.30;;;24.20;47.20;;;;;;5052401;28;20468;-62
2022/07/11 11:00:09;;;;;;;0.98;0.20;;;24.20;47.40;;;;;;5054788;28;20035;-63
2022/07/11 11:03:00;;;;;;;0.20;0.10;;;24.10;47.60;;;;;;5055349;28;20492;-61
2022/07/11 11:05:47;;;;;;;1.90;0.20;;;24.20;48.00;;;;;;5054719;28;20033;-62
2022/07/11 11:08:31;;;;;;;0.40;0.20;;;24.20;47.80;;;;;;5054640;28;20033;-62
2022/07/11 11:10:59;;;;;;;0.10;0.10;;;24.20;47.80;;;;;;5050470;28;20147;-62
2022/07/11 11:13:25;;;;;;;0.20;0.20;;;24.30;48.00;;;;;;5054575;28;20040;-62
2022/07/11 11:15:56;;;;;;;0.00;0.00;;;24.30;47.70;;;;;;5052005;28;20047;-63
2022/07/11 11:18:24;;;;;;;0.80;0.20;;;24.40;47.40;;;;;;5052280;28;20087;-62
2022/07/11 11:20:56;;;;;;;0.40;0.10;;;24.40;47.60;;;;;;5056625;28;20044;-62
2022/07/11 11:23:23;;;;;;;0.10;0.10;;;24.40;47.80;;;;;;5052918;28;20045;-63
2022/07/11 11:25:50;;;;;;;0.20;0.10;;;24.50;47.80;;;;;;5057299;28;20044;-65
2022/07/11 11:28:20;;;;;;;7.30;0.55;;;24.60;47.80;;;;;;5054326;28;20051;-62
2022/07/11 11:30:53;;;;;;;0.28;0.10;;;24.70;47.10;;;;;;5056699;28;20413;-62
2022/07/11 11:33:19;;;;;;;0.10;0.10;;;24.70;47.00;;;;;;5056091;28;20037;-63
2022/07/11 11:35:45;;;;;;;0.10;0.10;;;24.70;47.20;;;;;;5056142;28;20057;-63
2022/07/11 11:38:11;;;;;;;0.10;0.10;;;24.70;47.30;;;;;;5055660;28;20302;-62
2022/07/11 11:40:47;;;;;;;0.10;0.10;;;24.70;46.80;;;;;;5053246;28;20033;-64
2022/07/11 11:43:20;;;;;;;0.63;0.10;;;24.80;46.90;;;;;;5054292;28;20060;-63
2022/07/11 11:45:51;;;;;;;0.15;0.10;;;24.80;47.00;;;;;;5051442;28;20120;-62
2022/07/11 11:48:36;;;;;;;0.50;0.10;;;24.80;47.40;;;;;;5051521;28;20508;-63
2022/07/11 11:51:03;;;;;;;0.10;0.10;;;24.80;46.50;;;;;;5054837;28;20584;-63
2022/07/11 11:53:34;;;;;;;5.05;0.10;;;24.90;47.10;;;;;;5057776;28;20046;-61
2022/07/11 11:56:00;;;;;;;0.57;0.00;;;25.00;47.10;;;;;;5054996;28;20047;-62
2022/07/11 11:58:26;;;;;;;0.38;0.10;;;25.10;46.60;;;;;;5054738;28;20032;-62
2022/07/11 12:00:56;;;;;;;0.25;0.08;;;25.20;46.30;;;;;;5052848;28;20459;-61
2022/07/11 12:03:21;;;;;;;0.98;0.10;;;25.30;45.80;;;;;;5054473;28;20626;-63
2022/07/11 12:05:57;;;;;;;0.40;0.10;;;25.40;46.00;;;;;;5055186;28;20174;-62
2022/07/11 12:08:27;;;;;;;0.40;0.10;;;25.40;45.30;;;;;;5051815;28;20105;-62
2022/07/11 12:10:54;;;;;;;0.10;0.10;;;25.50;45.40;;;;;;5048998;28;20097;-62
2022/07/11 12:13:20;;;;;;;0.10;0.10;;;25.50;44.60;;;;;;5054472;28;20047;-63
2022/07/11 12:18:35;;;;;;;0.00;0.00;;;25.30;45.30;;;;;;5053979;28;20717;-63
2022/07/11 12:21:12;;;;;;;4.40;0.20;;;25.30;46.40;;;;;;5056791;28;20500;-64
2022/07/11 12:23:39;;;;;;;1.40;0.20;;;25.30;45.90;;;;;;5055408;28;20041;-62
2022/07/11 12:26:05;;;;;;;1.55;0.10;;;25.30;46.30;;;;;;5055135;28;20036;-63
2022/07/11 12:28:32;;;;;;;1.10;0.10;;;25.30;45.90;;;;;;5056711;28;20045;-65
2022/07/11 12:30:58;;;;;;;0.88;0.10;;;25.40;45.50;;;;;;5055350;28;20558;-64
2022/07/11 12:33:24;;;;;;;0.10;0.10;;;25.50;45.70;;;;;;5057113;28;20045;-65
2022/07/11 12:35:56;;;;;;;0.35;0.20;;;25.50;45.40;;;;;;5055869;28;20075;-63
2022/07/11 12:38:23;;;;;;;0.10;0.10;;;25.50;45.10;;;;;;5055447;28;20052;-64
2022/07/11 12:41:02;;;;;;;0.20;0.00;;;25.50;44.70;;;;;;5051087;28;20543;-63
2022/07/11 12:46:37;;;;;;;0.00;0.00;;;25.50;44.60;;;;;;5054545;28;20047;-63
2022/07/11 12:49:04;;;;;;;0.93;0.10;;;25.50;45.40;;;;;;5053340;28;20039;-62
2022/07/11 12:51:35;;;;;;;1.77;0.10;;;25.50;45.10;;;;;;5051242;28;20186;-63
2022/07/11 12:54:03;;;;;;;0.00;0.00;;;25.60;45.00;;;;;;5051466;28;20123;-63
2022/07/11 12:56:29;;;;;;;2.47;0.10;;;25.60;45.20;;;;;;5035209;28;20064;-65
2022/07/11 12:58:54;;;;;;;0.85;0.08;;;25.60;44.80;;;;;;5052549;28;20064;-62
2022/07/11 13:01:20;;;;;;;0.13;0.10;;;25.70;45.00;;;;;;5052145;28;20037;-64
2022/07/11 13:03:45;;;;;;;0.32;0.20;;;25.70;45.00;;;;;;5052258;28;20034;-64